Time;durP1;ratioP1;P1;durP2;ratioP2;P2;SDS_P1;SDS_P2;PMS_P1;PMS_P2;Temp;Humidity;BMP_temperature;BMP_pressure;BME280_temperature;BME280_humidity;BME280_pressure;Samples;Min_cycle;Max_cycle;Signal;HPM_P1;HPM_P2
2023/12/31 00:00:53;;;;;;;5.35;3.33;;;20.70;46.80;;;;;;8365538;28;20086;-48
2023/12/31 00:04:53;;;;;;;7.97;3.25;;;20.70;46.80;;;;;;8365583;28;20029;-47
2023/12/31 00:08:54;;;;;;;5.75;3.15;;;20.80;46.80;;;;;;8365509;28;20106;-48
2023/12/31 00:12:55;;;;;;;5.63;3.50;;;20.80;46.80;;;;;;8365243;28;20041;-48
2023/12/31 00:16:55;;;;;;;5.35;3.33;;;20.80;46.70;;;;;;8363831;28;20025;-46
2023/12/31 00:20:56;;;;;;;5.47;3.28;;;20.80;46.70;;;;;;8365144;28;20108;-49
2023/12/31 00:24:57;;;;;;;5.07;3.08;;;20.70;46.60;;;;;;8365072;28;20052;-48
2023/12/31 00:28:57;;;;;;;5.57;2.90;;;20.70;46.60;;;;;;8364784;28;20048;-49
2023/12/31 00:32:58;;;;;;;8.32;3.25;;;20.70;46.60;;;;;;8363505;28;20037;-48
2023/12/31 00:36:59;;;;;;;5.60;3.20;;;20.70;46.60;;;;;;8364715;28;20060;-47
2023/12/31 00:41:00;;;;;;;6.78;3.00;;;20.60;47.30;;;;;;8364607;28;20471;-46
2023/12/31 00:45:01;;;;;;;5.60;3.08;;;20.50;48.30;;;;;;8364500;28;20399;-47
2023/12/31 00:49:02;;;;;;;6.75;3.22;;;20.40;48.30;;;;;;8364103;28;20033;-48
2023/12/31 00:53:02;;;;;;;8.00;3.22;;;20.50;47.90;;;;;;8363190;28;20029;-47
2023/12/31 00:57:03;;;;;;;5.25;2.95;;;20.50;47.60;;;;;;8364028;28;20033;-46
2023/12/31 01:01:04;;;;;;;4.28;2.38;;;20.50;47.30;;;;;;8362729;28;20033;-46
2023/12/31 01:05:05;;;;;;;5.13;2.78;;;20.60;47.10;;;;;;8364313;28;20037;-46
2023/12/31 01:09:06;;;;;;;5.70;3.40;;;20.60;47.00;;;;;;8363399;28;20446;-48
2023/12/31 01:13:07;;;;;;;5.10;2.83;;;20.60;46.90;;;;;;8363485;28;20514;-46
2023/12/31 01:17:11;;;;;;;6.95;2.90;;;20.60;46.70;;;;;;8364135;28;20376;-47
2023/12/31 01:21:11;;;;;;;4.63;2.45;;;20.60;46.70;;;;;;8363067;28;20490;-48
2023/12/31 01:25:12;;;;;;;5.07;2.83;;;20.50;46.60;;;;;;8363260;28;20482;-46
2023/12/31 01:29:14;;;;;;;5.95;2.90;;;20.50;47.30;;;;;;8363180;28;20033;-47
2023/12/31 01:33:15;;;;;;;3.45;2.38;;;20.40;48.30;;;;;;8362909;28;20033;-46
2023/12/31 01:37:15;;;;;;;5.35;2.88;;;20.30;48.30;;;;;;8363767;28;20502;-48
2023/12/31 01:41:16;;;;;;;3.60;2.35;;;20.40;47.90;;;;;;8362842;28;20025;-47
2023/12/31 01:45:17;;;;;;;3.90;2.60;;;20.50;47.50;;;;;;8362551;28;20040;-46
2023/12/31 01:49:17;;;;;;;5.15;2.95;;;20.50;47.20;;;;;;8362499;28;20064;-48
2023/12/31 01:53:20;;;;;;;5.30;2.85;;;20.50;47.00;;;;;;8362613;28;20450;-47
2023/12/31 01:57:25;;;;;;;4.55;2.22;;;20.50;46.90;;;;;;8362482;28;20086;-46
2023/12/31 02:01:27;;;;;;;5.57;2.55;;;20.50;46.70;;;;;;8362130;28;20118;-48
2023/12/31 02:05:27;;;;;;;4.07;2.45;;;20.50;46.60;;;;;;8361789;28;20033;-47
2023/12/31 02:09:29;;;;;;;5.28;2.35;;;20.50;46.50;;;;;;8361827;28;20139;-47
2023/12/31 02:13:30;;;;;;;4.50;2.90;;;20.50;46.50;;;;;;8361669;28;20301;-46
2023/12/31 02:17:30;;;;;;;4.90;2.40;;;20.40;47.00;;;;;;8360099;28;20479;-46
2023/12/31 02:21:33;;;;;;;3.53;2.40;;;20.30;48.00;;;;;;8361350;28;20045;-46
2023/12/31 02:25:38;;;;;;;2.60;2.10;;;20.20;48.10;;;;;;8361522;28;20520;-46
2023/12/31 02:29:39;;;;;;;4.70;2.55;;;20.30;47.60;;;;;;8360633;28;20048;-47
2023/12/31 02:33:40;;;;;;;3.85;2.20;;;20.40;47.30;;;;;;8360996;28;20025;-46
2023/12/31 02:37:40;;;;;;;2.53;2.30;;;20.40;47.10;;;;;;8361008;28;20467;-48
2023/12/31 02:41:41;;;;;;;4.15;2.40;;;20.40;46.90;;;;;;8359331;28;20119;-47
2023/12/31 02:45:42;;;;;;;4.50;2.22;;;20.40;46.80;;;;;;8342694;28;20098;-49
2023/12/31 02:49:43;;;;;;;4.18;2.03;;;20.40;46.60;;;;;;8360601;28;20037;-47
2023/12/31 02:53:43;;;;;;;3.88;2.22;;;20.40;46.50;;;;;;8360275;28;20048;-47
2023/12/31 02:57:44;;;;;;;4.38;2.20;;;20.40;46.40;;;;;;8360350;28;20033;-46
2023/12/31 03:01:45;;;;;;;3.15;2.42;;;20.50;46.40;;;;;;8360392;28;20040;-45
2023/12/31 03:05:45;;;;;;;2.47;2.28;;;20.40;46.60;;;;;;8360664;28;20049;-44
2023/12/31 03:09:46;;;;;;;2.92;1.85;;;20.30;47.60;;;;;;8360515;28;20033;-45
2023/12/31 03:13:47;;;;;;;3.90;2.25;;;20.20;48.10;;;;;;8360147;28;20079;-46
2023/12/31 03:17:48;;;;;;;2.75;2.13;;;20.20;47.50;;;;;;8360202;28;20052;-45
2023/12/31 03:21:49;;;;;;;5.50;2.17;;;20.30;47.20;;;;;;8359138;28;20033;-45
2023/12/31 03:25:50;;;;;;;2.35;1.80;;;20.30;47.00;;;;;;8359773;28;20033;-45
2023/12/31 03:29:50;;;;;;;3.17;2.15;;;20.30;46.70;;;;;;8359924;28;20083;-46
2023/12/31 03:33:51;;;;;;;3.20;2.15;;;20.40;46.60;;;;;;8359492;28;20132;-47
2023/12/31 03:37:52;;;;;;;3.90;2.38;;;20.40;46.40;;;;;;8359685;28;20043;-45
2023/12/31 03:41:52;;;;;;;3.60;1.92;;;20.40;46.40;;;;;;8359780;28;20035;-46
2023/12/31 03:45:53;;;;;;;3.25;2.00;;;20.40;46.30;;;;;;8358234;28;20043;-44
2023/12/31 03:49:54;;;;;;;2.33;1.80;;;20.40;46.20;;;;;;8359345;28;20394;-44
2023/12/31 03:53:54;;;;;;;2.70;1.92;;;20.40;46.50;;;;;;8359271;28;20489;-45
2023/12/31 03:57:55;;;;;;;3.58;2.13;;;20.20;47.40;;;;;;8359367;28;20029;-46
2023/12/31 04:01:58;;;;;;;3.13;1.90;;;20.10;47.80;;;;;;8358983;28;20033;-45
2023/12/31 04:05:58;;;;;;;3.53;1.83;;;20.20;47.50;;;;;;8357632;28;20057;-44
2023/12/31 04:10:00;;;;;;;4.28;2.10;;;20.20;47.10;;;;;;8359062;28;20029;-46
2023/12/31 04:14:01;;;;;;;2.90;1.88;;;20.30;46.80;;;;;;8358812;28;20043;-44
2023/12/31 04:18:02;;;;;;;3.97;2.00;;;20.30;46.60;;;;;;8358800;28;20033;-45
2023/12/31 04:22:03;;;;;;;;;;;20.30;46.40;;;;;;8359479;28;20103;-46
2023/12/31 04:26:06;;;;;;;2.07;1.70;;;20.30;46.30;;;;;;8357466;28;20420;-44
2023/12/31 04:30:07;;;;;;;2.75;1.90;;;20.30;46.20;;;;;;8358563;28;20151;-45
2023/12/31 04:34:08;;;;;;;2.58;1.83;;;20.40;46.10;;;;;;8362177;28;20112;-46
2023/12/31 04:38:08;;;;;;;2.15;1.88;;;20.30;46.10;;;;;;8364515;28;20034;-45
2023/12/31 04:42:09;;;;;;;2.13;1.65;;;20.30;46.40;;;;;;8364372;28;20087;-45
2023/12/31 04:46:10;;;;;;;2.40;1.73;;;20.20;47.30;;;;;;8365101;28;20033;-45
2023/12/31 04:50:10;;;;;;;2.40;2.10;;;20.10;47.80;;;;;;8364224;28;20477;-45
2023/12/31 04:54:11;;;;;;;3.45;1.70;;;20.10;47.30;;;;;;8364037;28;20040;-45
2023/12/31 04:58:12;;;;;;;2.10;1.42;;;20.20;46.90;;;;;;8363926;28;20079;-44
2023/12/31 05:02:12;;;;;;;1.95;1.48;;;20.30;46.60;;;;;;8363721;28;20680;-45
2023/12/31 05:06:14;;;;;;;2.17;1.70;;;20.30;46.40;;;;;;8363720;28;20502;-46
2023/12/31 05:10:14;;;;;;;;;;;20.30;46.30;;;;;;8363955;28;20033;-46
2023/12/31 05:14:15;;;;;;;4.00;2.10;;;20.30;46.10;;;;;;8363530;28;20383;-44
2023/12/31 05:18:17;;;;;;;3.15;1.70;;;20.30;46.00;;;;;;8363660;28;20033;-46
2023/12/31 05:22:18;;;;;;;2.55;1.77;;;20.30;46.00;;;;;;8363276;28;20025;-48
2023/12/31 05:26:18;;;;;;;2.38;1.67;;;20.30;45.80;;;;;;8362961;28;20033;-46
2023/12/31 05:30:20;;;;;;;2.60;1.98;;;20.30;46.10;;;;;;8363122;28;20406;-47
2023/12/31 05:34:20;;;;;;;;;;;20.10;47.10;;;;;;8362153;28;20029;-46
2023/12/31 05:38:21;;;;;;;2.10;1.77;;;20.10;47.60;;;;;;8362835;28;20168;-46
2023/12/31 05:42:22;;;;;;;2.42;1.63;;;20.10;47.10;;;;;;8362634;28;20394;-48
2023/12/31 05:46:22;;;;;;;2.42;1.58;;;20.10;46.80;;;;;;8362120;28;20033;-48
2023/12/31 05:50:23;;;;;;;2.13;1.92;;;20.20;46.50;;;;;;8362400;28;20029;-47
2023/12/31 05:54:24;;;;;;;2.20;1.80;;;20.20;46.30;;;;;;8362190;28;20040;-47
2023/12/31 05:58:24;;;;;;;2.45;1.60;;;20.20;46.10;;;;;;8362253;28;20037;-48
2023/12/31 06:02:25;;;;;;;2.33;1.77;;;20.20;46.00;;;;;;8362237;28;20112;-47
2023/12/31 06:06:26;;;;;;;3.42;1.98;;;20.20;45.90;;;;;;8361521;28;20049;-47
2023/12/31 06:10:26;;;;;;;2.55;1.77;;;20.20;45.70;;;;;;8361861;28;20506;-47
2023/12/31 06:14:27;;;;;;;2.53;1.73;;;20.30;45.70;;;;;;8361539;28;20490;-47
2023/12/31 06:18:28;;;;;;;2.22;1.40;;;20.30;46.20;;;;;;8361548;28;20117;-47
2023/12/31 06:22:29;;;;;;;1.50;1.40;;;20.20;47.00;;;;;;8361378;28;20124;-47
2023/12/31 06:26:29;;;;;;;2.30;1.70;;;20.10;47.30;;;;;;8361554;28;20039;-46
2023/12/31 06:30:30;;;;;;;2.63;1.90;;;20.20;46.60;;;;;;8361108;28;20032;-48
2023/12/31 06:34:30;;;;;;;3.88;1.85;;;20.40;46.30;;;;;;8360838;28;20041;-47
2023/12/31 06:38:31;;;;;;;1.95;1.40;;;20.40;45.90;;;;;;8361173;28;20063;-47
2023/12/31 06:42:32;;;;;;;1.73;1.27;;;20.50;45.70;;;;;;8360532;28;20041;-46
2023/12/31 06:46:33;;;;;;;1.73;1.48;;;20.50;45.50;;;;;;8360614;28;20482;-47
2023/12/31 06:50:33;;;;;;;2.97;1.80;;;20.50;45.40;;;;;;8360605;28;20029;-47
2023/12/31 06:54:34;;;;;;;2.40;1.25;;;20.50;45.30;;;;;;8360215;28;20435;-47
2023/12/31 06:58:36;;;;;;;1.52;1.42;;;20.50;45.20;;;;;;8359564;28;20049;-47
2023/12/31 07:02:38;;;;;;;1.77;1.40;;;20.50;45.10;;;;;;8359009;28;20044;-47
2023/12/31 07:06:39;;;;;;;2.20;1.90;;;20.50;45.70;;;;;;8360115;28;20091;-47
2023/12/31 07:10:40;;;;;;;1.90;1.50;;;20.30;46.60;;;;;;8360030;28;20041;-49
2023/12/31 07:14:41;;;;;;;2.13;1.42;;;20.30;46.80;;;;;;8360620;28;20037;-47
2023/12/31 07:18:42;;;;;;;1.60;1.45;;;20.40;46.20;;;;;;8359956;28;20029;-47
2023/12/31 07:22:43;;;;;;;1.52;1.40;;;20.40;45.90;;;;;;8359647;28;20486;-47
2023/12/31 07:26:44;;;;;;;1.50;1.30;;;20.40;45.60;;;;;;8359840;28;20037;-46
2023/12/31 07:30:46;;;;;;;1.65;1.40;;;20.50;45.40;;;;;;8359863;28;20029;-47
2023/12/31 07:34:46;;;;;;;2.47;1.50;;;20.50;45.20;;;;;;8358077;28;20037;-46
2023/12/31 07:38:47;;;;;;;1.48;1.38;;;20.50;45.10;;;;;;8360190;28;20025;-46
2023/12/31 07:42:49;;;;;;;1.35;1.17;;;20.50;45.00;;;;;;8358370;28;20546;-47
2023/12/31 07:46:50;;;;;;;1.30;1.20;;;20.50;44.90;;;;;;8358438;28;20060;-46
2023/12/31 07:50:51;;;;;;;1.50;1.30;;;20.60;44.80;;;;;;8359301;28;20063;-46
2023/12/31 07:54:51;;;;;;;2.42;1.52;;;20.50;45.50;;;;;;8359363;28;20505;-47
2023/12/31 07:58:52;;;;;;;2.05;1.50;;;20.40;46.50;;;;;;8359194;28;20388;-47
2023/12/31 08:02:53;;;;;;;1.40;1.13;;;20.30;46.50;;;;;;8359325;28;20037;-46
2023/12/31 08:06:53;;;;;;;1.17;1.05;;;20.40;46.00;;;;;;8357729;28;20061;-46
2023/12/31 08:10:54;;;;;;;1.70;1.48;;;20.40;45.60;;;;;;8364670;28;20044;-48
2023/12/31 08:14:55;;;;;;;1.42;1.20;;;20.50;45.40;;;;;;8364181;28;20029;-47
2023/12/31 08:18:55;;;;;;;1.50;1.40;;;20.50;45.20;;;;;;8365332;28;20032;-48
2023/12/31 08:22:58;;;;;;;1.40;1.30;;;20.50;45.10;;;;;;8365565;28;20051;-49
2023/12/31 08:26:58;;;;;;;1.92;1.40;;;20.50;45.00;;;;;;8365166;28;20048;-46
2023/12/31 08:30:59;;;;;;;1.40;1.30;;;20.50;44.90;;;;;;8364801;28;20068;-47
2023/12/31 08:35:00;;;;;;;1.08;0.98;;;20.50;44.80;;;;;;8365042;28;20071;-47
2023/12/31 08:39:01;;;;;;;1.80;1.20;;;20.50;44.80;;;;;;8364570;28;20090;-46
2023/12/31 08:43:03;;;;;;;1.52;1.33;;;20.50;45.60;;;;;;8364679;28;20049;-47
2023/12/31 08:47:04;;;;;;;1.40;0.90;;;20.30;46.50;;;;;;8364551;28;20033;-44
2023/12/31 08:51:04;;;;;;;1.40;1.30;;;20.20;46.40;;;;;;8364093;28;20528;-45
2023/12/31 08:55:08;;;;;;;2.58;1.42;;;20.30;46.00;;;;;;8365162;28;20115;-44
2023/12/31 08:59:09;;;;;;;1.38;1.10;;;20.40;45.60;;;;;;8364204;28;20033;-45
2023/12/31 09:03:09;;;;;;;1.33;1.13;;;20.40;45.30;;;;;;8363996;28;20044;-45
2023/12/31 09:07:10;;;;;;;1.45;1.20;;;20.50;45.10;;;;;;8362578;28;20061;-46
2023/12/31 09:11:10;;;;;;;1.88;1.20;;;20.50;44.90;;;;;;8363803;28;20059;-45
2023/12/31 09:15:11;;;;;;;1.55;1.13;;;20.50;44.80;;;;;;8363592;28;20032;-44
2023/12/31 09:19:12;;;;;;;1.83;1.08;;;20.50;44.70;;;;;;8361634;28;20394;-46
2023/12/31 09:23:13;;;;;;;2.13;1.40;;;20.50;44.60;;;;;;8363521;28;20546;-45
2023/12/31 09:27:14;;;;;;;1.58;1.10;;;20.60;44.60;;;;;;8362890;28;20037;-44
2023/12/31 09:31:14;;;;;;;1.30;1.00;;;20.50;45.40;;;;;;8362126;28;20069;-46
2023/12/31 09:35:15;;;;;;;1.15;1.05;;;20.30;46.30;;;;;;8362878;28;20447;-44
2023/12/31 09:39:16;;;;;;;1.20;1.02;;;20.30;46.10;;;;;;8362839;28;20025;-47
2023/12/31 09:43:20;;;;;;;1.77;1.40;;;20.40;45.60;;;;;;8363312;28;20029;-45
2023/12/31 09:47:22;;;;;;;1.65;1.23;;;20.50;45.50;;;;;;8362432;28;20477;-46
2023/12/31 09:51:23;;;;;;;1.50;1.10;;;20.50;45.10;;;;;;8362516;28;20033;-47
2023/12/31 09:55:25;;;;;;;1.17;1.10;;;20.50;44.90;;;;;;8360976;28;20033;-48
2023/12/31 09:59:29;;;;;;;1.00;1.00;;;20.50;44.70;;;;;;8362065;28;20100;-48
2023/12/31 10:03:30;;;;;;;1.95;1.30;;;20.50;44.60;;;;;;8362184;28;20060;-47
2023/12/31 10:07:31;;;;;;;1.13;1.00;;;20.50;44.50;;;;;;8361638;28;20053;-46
2023/12/31 10:11:33;;;;;;;1.27;1.15;;;20.50;44.50;;;;;;8362869;28;20497;-46
2023/12/31 10:15:34;;;;;;;1.50;1.10;;;20.50;44.40;;;;;;8361458;28;20029;-48
2023/12/31 10:19:35;;;;;;;1.30;1.10;;;20.50;45.40;;;;;;8361824;28;20040;-48
2023/12/31 10:23:36;;;;;;;1.65;1.30;;;20.30;46.30;;;;;;8361267;28;20037;-47
2023/12/31 10:27:37;;;;;;;1.27;1.10;;;20.30;46.00;;;;;;8361081;28;20043;-49
2023/12/31 10:31:38;;;;;;;1.15;1.05;;;20.40;46.10;;;;;;8361051;28;20041;-48
2023/12/31 10:35:39;;;;;;;2.25;1.42;;;20.50;45.20;;;;;;8360628;28;20090;-49
2023/12/31 10:39:39;;;;;;;1.20;1.00;;;20.50;45.00;;;;;;8360644;28;20044;-48
2023/12/31 10:43:41;;;;;;;1.20;1.10;;;20.50;44.80;;;;;;8360704;28;20029;-47
2023/12/31 10:47:45;;;;;;;1.10;1.00;;;20.50;44.70;;;;;;8360714;28;20483;-48
2023/12/31 10:51:47;;;;;;;1.40;1.10;;;20.50;44.60;;;;;;8360380;28;20029;-48
2023/12/31 10:55:49;;;;;;;1.30;1.20;;;20.50;44.50;;;;;;8359039;28;20028;-47
2023/12/31 10:59:53;;;;;;;1.00;0.90;;;20.50;44.40;;;;;;8360348;28;20036;-49
2023/12/31 11:03:56;;;;;;;1.13;1.02;;;20.50;44.40;;;;;;8360112;28;20029;-48
2023/12/31 11:07:59;;;;;;;1.60;1.17;;;20.40;45.40;;;;;;8360156;28;20057;-50
2023/12/31 11:12:00;;;;;;;2.13;1.02;;;20.20;46.20;;;;;;8359908;28;20040;-49
2023/12/31 11:16:03;;;;;;;1.10;1.00;;;20.20;45.80;;;;;;8359888;28;20033;-47
2023/12/31 11:20:16;;;;;;;0.98;0.90;;;20.30;45.40;;;;;;8359731;28;20032;-49
2023/12/31 11:24:23;;;;;;;1.10;0.95;;;20.40;45.10;;;;;;8359674;28;20025;-48
2023/12/31 11:28:27;;;;;;;1.08;0.98;;;20.50;44.90;;;;;;8360102;28;20037;-48
2023/12/31 11:32:29;;;;;;;1.02;0.93;;;20.50;44.70;;;;;;8359382;28;20025;-48
2023/12/31 11:36:31;;;;;;;1.20;1.10;;;20.50;44.60;;;;;;8359539;28;20029;-47
2023/12/31 11:40:36;;;;;;;1.73;0.75;;;20.50;44.40;;;;;;8359429;28;20037;-48
2023/12/31 11:44:43;;;;;;;1.10;0.90;;;20.40;44.40;;;;;;8363163;28;20029;-47
2023/12/31 11:48:47;;;;;;;1.08;0.98;;;20.50;44.40;;;;;;8366673;28;20032;-48
2023/12/31 11:52:49;;;;;;;1.08;0.90;;;20.50;44.70;;;;;;8366244;28;20052;-47
2023/12/31 11:56:53;;;;;;;1.05;1.05;;;20.30;45.60;;;;;;8365660;28;20112;-49
2023/12/31 12:00:54;;;;;;;1.35;1.25;;;20.20;46.10;;;;;;8365755;28;20056;-47
2023/12/31 12:04:59;;;;;;;;;;;20.30;45.70;;;;;;8366455;28;20025;-48
2023/12/31 12:09:00;;;;;;;1.10;1.00;;;20.30;45.20;;;;;;8365522;28;19982;-49
2023/12/31 12:13:01;;;;;;;1.27;0.90;;;20.40;45.00;;;;;;8365657;28;20033;-48
2023/12/31 12:17:04;;;;;;;;;;;20.40;44.70;;;;;;8365875;28;20462;-46
2023/12/31 12:21:07;;;;;;;1.08;0.95;;;20.40;44.60;;;;;;8365175;28;20123;-48
2023/12/31 12:25:08;;;;;;;1.42;1.33;;;20.50;44.50;;;;;;8365107;28;20116;-47
2023/12/31 12:29:10;;;;;;;;;;;20.50;44.40;;;;;;8365350;28;20087;-47
2023/12/31 12:33:13;;;;;;;1.10;0.95;;;20.40;44.20;;;;;;8364985;28;19958;-48
2023/12/31 12:37:14;;;;;;;0.98;0.88;;;20.50;44.20;;;;;;8365204;28;20032;-47
2023/12/31 12:41:24;;;;;;;0.70;0.70;;;20.50;44.60;;;;;;8364619;28;20112;-48
2023/12/31 12:45:26;;;;;;;0.80;0.80;;;20.30;45.60;;;;;;8363464;28;20083;-49
2023/12/31 12:49:26;;;;;;;0.70;0.70;;;20.10;46.00;;;;;;8364625;28;20056;-51
2023/12/31 12:53:27;;;;;;;0.68;0.68;;;20.20;45.40;;;;;;8364365;28;20048;-47
2023/12/31 12:57:28;;;;;;;0.82;0.82;;;20.30;45.10;;;;;;8362853;28;20052;-48
2023/12/31 13:01:30;;;;;;;1.20;1.10;;;20.40;44.80;;;;;;8364132;28;20044;-49
2023/12/31 13:05:30;;;;;;;1.88;0.98;;;20.40;44.60;;;;;;8363639;28;20048;-47
2023/12/31 13:09:35;;;;;;;1.02;0.93;;;20.40;44.50;;;;;;8363758;28;20045;-50
2023/12/31 13:13:35;;;;;;;1.08;0.85;;;20.40;44.40;;;;;;8363803;28;20037;-48
2023/12/31 13:17:36;;;;;;;0.85;0.85;;;20.40;44.30;;;;;;8363631;28;20029;-48
2023/12/31 13:21:37;;;;;;;1.00;0.80;;;20.40;44.20;;;;;;8363505;28;20025;-47
2023/12/31 13:25:38;;;;;;;1.13;0.90;;;20.40;44.10;;;;;;8362045;28;20375;-46
2023/12/31 13:29:39;;;;;;;0.75;0.63;;;20.40;44.60;;;;;;8363157;28;20086;-48
2023/12/31 13:33:46;;;;;;;1.30;0.80;;;20.20;45.70;;;;;;8363021;28;20036;-46
2023/12/31 13:37:46;;;;;;;0.93;0.70;;;20.10;45.90;;;;;;8362986;28;20032;-46
2023/12/31 13:41:47;;;;;;;0.80;0.68;;;20.20;45.30;;;;;;8362753;28;20470;-47
2023/12/31 13:45:48;;;;;;;0.70;0.70;;;20.40;45.00;;;;;;8362565;28;20036;-46
2023/12/31 13:49:49;;;;;;;0.65;0.65;;;20.40;44.70;;;;;;8361346;28;20479;-46
2023/12/31 13:53:50;;;;;;;0.70;0.70;;;20.40;44.50;;;;;;8362619;28;20502;-47
2023/12/31 13:57:51;;;;;;;1.02;0.80;;;20.40;44.30;;;;;;8362091;28;20423;-47
2023/12/31 14:01:52;;;;;;;0.70;0.70;;;20.50;44.30;;;;;;8362090;28;20273;-47
2023/12/31 14:05:53;;;;;;;0.90;0.70;;;20.50;44.10;;;;;;8361518;28;20084;-48
2023/12/31 14:09:54;;;;;;;0.70;0.70;;;20.40;43.90;;;;;;8360556;28;20040;-47
2023/12/31 14:13:54;;;;;;;0.77;0.75;;;20.50;44.00;;;;;;8361473;28;20037;-47
2023/12/31 14:17:55;;;;;;;0.80;0.80;;;20.50;44.60;;;;;;8361860;28;20044;-46
2023/12/31 14:21:57;;;;;;;1.00;0.90;;;20.30;45.50;;;;;;8361713;28;20033;-46
2023/12/31 14:25:58;;;;;;;0.77;0.70;;;20.20;45.60;;;;;;8361878;28;20045;-47
2023/12/31 14:29:59;;;;;;;0.63;0.57;;;20.30;45.10;;;;;;8361208;28;20048;-48
2023/12/31 14:34:01;;;;;;;0.50;0.50;;;20.40;44.80;;;;;;8360013;28;20033;-47
2023/12/31 14:38:02;;;;;;;0.70;0.60;;;20.40;44.50;;;;;;8360004;28;20394;-47
2023/12/31 14:42:03;;;;;;;0.75;0.75;;;20.40;44.30;;;;;;8360698;28;20036;-47
2023/12/31 14:46:04;;;;;;;0.90;0.75;;;20.50;44.20;;;;;;8360743;28;20029;-48
2023/12/31 14:50:07;;;;;;;0.75;0.70;;;20.50;44.10;;;;;;8360834;28;20083;-48
2023/12/31 14:54:07;;;;;;;0.60;0.60;;;20.50;44.00;;;;;;8360223;28;20029;-47
2023/12/31 14:58:08;;;;;;;0.60;0.60;;;20.50;44.00;;;;;;8359212;28;20025;-47
2023/12/31 15:02:20;;;;;;;0.70;0.70;;;20.50;43.80;;;;;;8360666;28;20075;-47
2023/12/31 15:06:21;;;;;;;0.70;0.70;;;20.40;44.50;;;;;;8359966;28;20059;-46
2023/12/31 15:10:22;;;;;;;0.80;0.73;;;20.20;45.50;;;;;;8358718;28;20483;-46
2023/12/31 15:14:22;;;;;;;0.60;0.50;;;20.20;45.50;;;;;;8358717;28;20474;-46
2023/12/31 15:18:23;;;;;;;1.15;0.90;;;20.30;45.00;;;;;;8359367;28;20037;-47
2023/12/31 15:22:24;;;;;;;0.82;0.73;;;20.30;44.70;;;;;;8359981;28;20036;-46
2023/12/31 15:26:25;;;;;;;0.77;0.60;;;20.30;44.50;;;;;;8359718;28;20033;-47
2023/12/31 15:30:25;;;;;;;0.60;0.60;;;20.40;44.30;;;;;;8359746;28;20040;-47
2023/12/31 15:34:27;;;;;;;0.60;0.60;;;20.40;44.20;;;;;;8359564;28;20041;-46
2023/12/31 15:38:28;;;;;;;0.90;0.70;;;20.40;44.10;;;;;;8359840;28;20083;-47
2023/12/31 15:42:29;;;;;;;1.05;0.82;;;20.40;43.90;;;;;;8359304;28;20032;-48
2023/12/31 15:46:29;;;;;;;0.63;0.50;;;20.40;43.90;;;;;;8359517;28;20390;-48
2023/12/31 15:50:30;;;;;;;0.93;0.70;;;20.40;43.80;;;;;;8359483;28;20036;-48
2023/12/31 15:54:31;;;;;;;0.95;0.70;;;20.30;44.60;;;;;;8357881;28;20064;-49
2023/12/31 15:58:32;;;;;;;0.70;0.57;;;20.20;45.60;;;;;;8359453;28;20518;-48
2023/12/31 16:02:33;;;;;;;0.70;0.60;;;20.20;45.40;;;;;;8359239;28;20528;-48
2023/12/31 16:06:33;;;;;;;0.90;0.80;;;20.30;44.90;;;;;;8358838;28;20068;-48
2023/12/31 16:10:34;;;;;;;1.05;0.75;;;20.30;44.60;;;;;;8359060;28;20482;-48
2023/12/31 16:14:35;;;;;;;0.88;0.77;;;20.40;44.30;;;;;;8358882;28;20518;-48
2023/12/31 16:18:36;;;;;;;0.60;0.60;;;20.40;44.10;;;;;;8357943;28;20033;-49
2023/12/31 16:22:37;;;;;;;1.15;0.60;;;20.40;43.90;;;;;;8358944;28;20055;-48
2023/12/31 16:26:37;;;;;;;0.50;0.50;;;20.50;43.90;;;;;;8359237;28;20391;-48
2023/12/31 16:30:38;;;;;;;1.02;0.70;;;20.50;43.90;;;;;;8362005;28;20040;-48
2023/12/31 16:34:39;;;;;;;0.50;0.50;;;20.50;43.70;;;;;;8364841;28;20414;-48
2023/12/31 16:38:40;;;;;;;1.05;0.73;;;20.50;43.60;;;;;;8364975;28;20119;-48
2023/12/31 16:42:43;;;;;;;0.70;0.70;;;20.40;44.60;;;;;;8364558;28;20040;-46
2023/12/31 16:46:43;;;;;;;0.60;0.60;;;20.20;45.50;;;;;;8364504;28;20056;-46
2023/12/31 16:50:44;;;;;;;0.50;0.50;;;20.20;45.20;;;;;;8365286;28;20040;-50
2023/12/31 16:54:45;;;;;;;0.60;0.60;;;20.30;44.70;;;;;;8363946;28;20040;-48
2023/12/31 16:58:45;;;;;;;0.50;0.50;;;20.30;44.40;;;;;;8364183;28;20463;-46
2023/12/31 17:02:46;;;;;;;0.60;0.60;;;20.40;44.20;;;;;;8364891;28;20040;-47
2023/12/31 17:06:47;;;;;;;0.50;0.50;;;20.40;43.90;;;;;;8363674;28;20064;-47
2023/12/31 17:10:47;;;;;;;0.68;0.68;;;20.40;43.90;;;;;;8363522;28;20525;-48
2023/12/31 17:14:48;;;;;;;0.90;0.77;;;20.50;43.90;;;;;;8363335;28;20037;-47
2023/12/31 17:18:49;;;;;;;0.70;0.50;;;20.50;43.70;;;;;;8362654;28;20041;-46
2023/12/31 17:22:49;;;;;;;0.75;0.50;;;20.50;43.60;;;;;;8363485;28;20038;-47
2023/12/31 17:26:54;;;;;;;0.70;0.70;;;20.40;43.60;;;;;;8362986;28;20482;-47
2023/12/31 17:30:55;;;;;;;0.57;0.50;;;20.30;44.50;;;;;;8363154;28;20041;-47
2023/12/31 17:34:56;;;;;;;;;;;20.10;45.50;;;;;;8363421;28;20033;-48
2023/12/31 17:38:56;;;;;;;0.57;0.57;;;20.20;45.20;;;;;;8362690;28;19935;-50
2023/12/31 17:42:57;;;;;;;0.50;0.50;;;20.20;44.80;;;;;;8360889;28;20107;-47
2023/12/31 17:46:58;;;;;;;0.70;0.70;;;20.20;44.50;;;;;;8362665;28;20030;-48
2023/12/31 17:51:02;;;;;;;0.80;0.70;;;20.30;44.30;;;;;;8362289;28;20398;-47
2023/12/31 17:55:03;;;;;;;0.45;0.45;;;20.30;44.10;;;;;;8362250;28;20043;-48
2023/12/31 17:59:04;;;;;;;0.57;0.50;;;20.30;43.90;;;;;;8362207;28;20025;-47
2023/12/31 18:03:05;;;;;;;0.50;0.50;;;20.40;43.90;;;;;;8362332;28;20067;-49
2023/12/31 18:07:05;;;;;;;0.98;0.77;;;20.40;43.70;;;;;;8361890;28;20574;-48
2023/12/31 18:11:06;;;;;;;0.50;0.50;;;20.40;43.70;;;;;;8362274;28;20025;-48
2023/12/31 18:15:07;;;;;;;0.65;0.50;;;20.50;43.60;;;;;;8361768;28;20041;-46
2023/12/31 18:19:08;;;;;;;0.77;0.77;;;20.30;44.70;;;;;;8361746;28;20033;-48
2023/12/31 18:23:09;;;;;;;0.50;0.50;;;20.10;45.50;;;;;;8361689;28;20029;-49
2023/12/31 18:27:10;;;;;;;0.70;0.70;;;20.20;45.10;;;;;;8360278;28;20043;-48
2023/12/31 18:31:10;;;;;;;0.50;0.50;;;20.30;44.70;;;;;;8361287;28;20675;-48
2023/12/31 18:35:11;;;;;;;0.70;0.70;;;20.30;44.30;;;;;;8361406;28;20080;-47
2023/12/31 18:39:13;;;;;;;0.60;0.60;;;20.40;44.00;;;;;;8361066;28;20131;-46
2023/12/31 18:43:14;;;;;;;0.90;0.80;;;20.30;44.10;;;;;;8358808;28;20037;-48
2023/12/31 18:47:15;;;;;;;0.57;0.57;;;20.20;43.70;;;;;;8331062;28;20030;-49
2023/12/31 18:51:16;;;;;;;2.70;0.68;;;20.40;43.80;;;;;;8331309;28;20029;-48
2023/12/31 18:55:17;;;;;;;0.95;0.73;;;20.50;45.10;;;;;;8356973;28;20021;-48
2023/12/31 18:59:17;;;;;;;2.05;0.50;;;20.60;44.50;;;;;;8355229;28;20033;-46
2023/12/31 19:03:18;;;;;;;0.90;0.70;;;20.70;44.60;;;;;;8357099;28;20052;-52
2023/12/31 19:07:19;;;;;;;0.98;0.55;;;20.60;45.30;;;;;;8356665;28;20106;-52
2023/12/31 19:11:21;;;;;;;2.83;0.60;;;20.50;45.80;;;;;;8356672;28;20075;-50
2023/12/31 19:15:22;;;;;;;1.27;0.60;;;20.60;45.60;;;;;;8356524;28;20036;-50
2023/12/31 19:19:25;;;;;;;1.00;0.75;;;20.70;45.00;;;;;;8339238;28;20028;-47
2023/12/31 19:23:26;;;;;;;0.93;0.68;;;20.70;44.80;;;;;;8356257;28;20033;-46
2023/12/31 19:27:27;;;;;;;4.47;0.70;;;20.80;44.20;;;;;;8354837;28;20116;-45
2023/12/31 19:31:27;;;;;;;0.75;0.75;;;20.80;44.30;;;;;;8356392;28;20040;-48
2023/12/31 19:35:28;;;;;;;3.17;0.68;;;20.80;44.30;;;;;;8356298;28;20037;-46
2023/12/31 19:39:29;;;;;;;0.52;0.52;;;20.80;44.10;;;;;;8355108;28;20075;-46
2023/12/31 19:43:33;;;;;;;1.48;0.70;;;20.80;44.20;;;;;;8355940;28;20410;-46
2023/12/31 19:47:34;;;;;;;6.78;0.98;;;20.90;44.00;;;;;;8356101;28;20033;-45
2023/12/31 19:51:39;;;;;;;0.80;0.57;;;20.90;44.00;;;;;;8354344;28;20577;-49
2023/12/31 19:55:40;;;;;;;1.73;0.60;;;21.00;44.00;;;;;;8355571;28;20029;-47
2023/12/31 19:59:40;;;;;;;1.58;0.70;;;20.90;44.70;;;;;;8356073;28;20056;-47
2023/12/31 20:03:44;;;;;;;4.97;0.93;;;20.80;45.40;;;;;;8356388;28;20033;-50
2023/12/31 20:07:45;;;;;;;2.42;0.43;;;20.70;45.10;;;;;;8362370;28;20102;-44
2023/12/31 20:11:45;;;;;;;2.60;0.57;;;20.90;44.90;;;;;;8362531;28;20044;-44
2023/12/31 20:15:46;;;;;;;5.25;0.70;;;21.00;44.50;;;;;;8362109;28;20116;-46
2023/12/31 20:19:47;;;;;;;2.63;0.65;;;21.00;44.20;;;;;;8362073;28;20108;-45
2023/12/31 20:23:49;;;;;;;0.57;0.50;;;21.00;44.00;;;;;;8361939;28;20114;-45
2023/12/31 20:27:49;;;;;;;0.60;0.50;;;21.10;44.20;;;;;;8362026;28;20461;-46
2023/12/31 20:31:52;;;;;;;1.30;0.77;;;21.10;43.90;;;;;;8362206;28;20036;-47
2023/12/31 20:35:52;;;;;;;1.58;0.90;;;21.10;43.60;;;;;;8361309;28;20028;-45
2023/12/31 20:39:53;;;;;;;1.60;0.70;;;21.00;43.70;;;;;;8361458;28;20486;-47
2023/12/31 20:43:55;;;;;;;2.00;0.60;;;21.10;43.70;;;;;;8361608;28;20055;-44
2023/12/31 20:47:56;;;;;;;1.75;0.55;;;21.00;44.60;;;;;;8361449;28;20059;-46
2023/12/31 20:51:57;;;;;;;3.03;0.85;;;20.90;45.10;;;;;;8360193;28;20051;-44
2023/12/31 20:55:57;;;;;;;5.03;1.33;;;20.80;45.00;;;;;;8361380;28;20068;-44